sensor_id;sensor_type;location;lat;lon;timestamp;temperature;humidity
13848;DHT22;6994;49.752;6.094;2022-12-07T00:00:03;4.10;99.90
13848;DHT22;6994;49.752;6.094;2022-12-07T00:02:30;4.10;99.90
13848;DHT22;6994;49.752;6.094;2022-12-07T00:04:57;4.00;99.90
13848;DHT22;6994;49.752;6.094;2022-12-07T00:07:25;4.00;99.90
13848;DHT22;6994;49.752;6.094;2022-12-07T00:09:52;4.20;99.90
13848;DHT22;6994;49.752;6.094;2022-12-07T00:12:19;4.20;99.90
13848;DHT22;6994;49.752;6.094;2022-12-07T00:14:46;4.20;99.90
13848;DHT22;6994;49.752;6.094;2022-12-07T00:17:13;4.10;99.90
13848;DHT22;6994;49.752;6.094;2022-12-07T00:19:41;4.30;99.90
13848;DHT22;6994;49.752;6.094;2022-12-07T00:22:08;4.30;99.90
13848;DHT22;6994;49.752;6.094;2022-12-07T00:24:35;4.30;99.90
13848;DHT22;6994;49.752;6.094;2022-12-07T00:27:02;4.20;99.90
13848;DHT22;6994;49.752;6.094;2022-12-07T00:29:29;4.20;99.90
13848;DHT22;6994;49.752;6.094;2022-12-07T00:31:57;4.10;99.90
13848;DHT22;6994;49.752;6.094;2022-12-07T00:34:24;4.00;99.90
13848;DHT22;6994;49.752;6.094;2022-12-07T00:36:51;4.00;99.90
13848;DHT22;6994;49.752;6.094;2022-12-07T00:39:18;3.90;99.90
13848;DHT22;6994;49.752;6.094;2022-12-07T00:41:45;3.90;99.90
13848;DHT22;6994;49.752;6.094;2022-12-07T00:44:13;3.90;99.90
13848;DHT22;6994;49.752;6.094;2022-12-07T00:46:40;3.90;99.90
13848;DHT22;6994;49.752;6.094;2022-12-07T00:49:07;3.80;99.90
13848;DHT22;6994;49.752;6.094;2022-12-07T00:51:34;3.80;99.90
13848;DHT22;6994;49.752;6.094;2022-12-07T00:54:01;3.80;99.90
13848;DHT22;6994;49.752;6.094;2022-12-07T00:56:29;3.70;99.90
13848;DHT22;6994;49.752;6.094;2022-12-07T00:58:57;3.70;99.90
13848;DHT22;6994;49.752;6.094;2022-12-07T01:01:25;3.70;99.90
13848;DHT22;6994;49.752;6.094;2022-12-07T01:03:52;3.70;99.90
13848;DHT22;6994;49.752;6.094;2022-12-07T01:06:19;3.60;99.90
13848;DHT22;6994;49.752;6.094;2022-12-07T01:08:46;3.60;99.90
13848;DHT22;6994;49.752;6.094;2022-12-07T01:11:15;3.60;99.90
13848;DHT22;6994;49.752;6.094;2022-12-07T01:13:42;3.60;99.90
13848;DHT22;6994;49.752;6.094;2022-12-07T01:16:10;3.60;99.90
13848;DHT22;6994;49.752;6.094;2022-12-07T01:18:37;3.60;99.90
13848;DHT22;6994;49.752;6.094;2022-12-07T01:21:08;3.60;99.90
13848;DHT22;6994;49.752;6.094;2022-12-07T01:23:34;3.60;99.90
13848;DHT22;6994;49.752;6.094;2022-12-07T01:26:04;3.60;99.90
13848;DHT22;6994;49.752;6.094;2022-12-07T01:28:30;3.70;99.90
13848;DHT22;6994;49.752;6.094;2022-12-07T01:31:02;3.70;99.90
13848;DHT22;6994;49.752;6.094;2022-12-07T01:33:28;3.60;99.90
13848;DHT22;6994;49.752;6.094;2022-12-07T01:36:00;3.70;99.90
13848;DHT22;6994;49.752;6.094;2022-12-07T01:38:22;3.70;99.90
13848;DHT22;6994;49.752;6.094;2022-12-07T01:40:53;3.60;99.90
13848;DHT22;6994;49.752;6.094;2022-12-07T01:43:17;3.60;99.90
13848;DHT22;6994;49.752;6.094;2022-12-07T01:45:44;3.60;99.90
13848;DHT22;6994;49.752;6.094;2022-12-07T01:48:13;3.60;99.90
13848;DHT22;6994;49.752;6.094;2022-12-07T01:50:39;3.70;99.90
13848;DHT22;6994;49.752;6.094;2022-12-07T01:53:06;3.70;99.90
13848;DHT22;6994;49.752;6.094;2022-12-07T01:55:34;3.70;99.90
13848;DHT22;6994;49.752;6.094;2022-12-07T01:58:01;3.70;99.90
13848;DHT22;6994;49.752;6.094;2022-12-07T02:00:29;3.70;99.90
13848;DHT22;6994;49.752;6.094;2022-12-07T02:03:10;3.80;99.90
13848;DHT22;6994;49.752;6.094;2022-12-07T02:05:36;3.80;99.90
13848;DHT22;6994;49.752;6.094;2022-12-07T02:08:03;3.90;99.90
13848;DHT22;6994;49.752;6.094;2022-12-07T02:10:30;4.10;99.90
13848;DHT22;6994;49.752;6.094;2022-12-07T02:13:21;4.30;99.90
13848;DHT22;6994;49.752;6.094;2022-12-07T02:18:27;4.60;99.90
13848;DHT22;6994;49.752;6.094;2022-12-07T02:26:47;4.50;99.90
13848;DHT22;6994;49.752;6.094;2022-12-07T02:29:24;4.50;99.90
13848;DHT22;6994;49.752;6.094;2022-12-07T02:31:49;4.40;99.90
13848;DHT22;6994;49.752;6.094;2022-12-07T02:34:18;4.40;99.90
13848;DHT22;6994;49.752;6.094;2022-12-07T02:36:45;4.40;99.90
13848;DHT22;6994;49.752;6.094;2022-12-07T02:39:16;4.40;99.90
13848;DHT22;6994;49.752;6.094;2022-12-07T02:41:48;4.40;99.90
13848;DHT22;6994;49.752;6.094;2022-12-07T02:44:15;4.40;99.90
13848;DHT22;6994;49.752;6.094;2022-12-07T02:46:47;4.40;99.90
13848;DHT22;6994;49.752;6.094;2022-12-07T02:49:11;4.40;99.90
13848;DHT22;6994;49.752;6.094;2022-12-07T02:51:39;4.40;99.90
13848;DHT22;6994;49.752;6.094;2022-12-07T02:54:12;4.40;99.90
13848;DHT22;6994;49.752;6.094;2022-12-07T03:07:52;4.70;99.90
13848;DHT22;6994;49.752;6.094;2022-12-07T03:13:14;5.30;99.90
13848;DHT22;6994;49.752;6.094;2022-12-07T03:15:42;5.20;99.90
13848;DHT22;6994;49.752;6.094;2022-12-07T03:18:08;5.10;99.90
13848;DHT22;6994;49.752;6.094;2022-12-07T03:20:36;5.00;99.90
13848;DHT22;6994;49.752;6.094;2022-12-07T03:23:05;4.90;99.90
13848;DHT22;6994;49.752;6.094;2022-12-07T03:25:31;4.90;99.90
13848;DHT22;6994;49.752;6.094;2022-12-07T03:27:59;4.90;99.90
13848;DHT22;6994;49.752;6.094;2022-12-07T03:30:49;4.90;99.90
13848;DHT22;6994;49.752;6.094;2022-12-07T03:33:06;4.80;99.90
13848;DHT22;6994;49.752;6.094;2022-12-07T03:35:33;4.80;99.90
13848;DHT22;6994;49.752;6.094;2022-12-07T03:38:14;4.80;99.90
13848;DHT22;6994;49.752;6.094;2022-12-07T03:40:37;4.80;99.90
13848;DHT22;6994;49.752;6.094;2022-12-07T03:43:02;5.00;99.90
13848;DHT22;6994;49.752;6.094;2022-12-07T03:45:37;5.30;99.90
13848;DHT22;6994;49.752;6.094;2022-12-07T03:48:32;5.30;99.90
13848;DHT22;6994;49.752;6.094;2022-12-07T03:50:48;5.30;99.90
13848;DHT22;6994;49.752;6.094;2022-12-07T03:53:11;5.60;99.90
13848;DHT22;6994;49.752;6.094;2022-12-07T03:55:37;5.50;99.90
13848;DHT22;6994;49.752;6.094;2022-12-07T03:58:07;5.40;99.90
13848;DHT22;6994;49.752;6.094;2022-12-07T04:00:33;5.40;99.90
13848;DHT22;6994;49.752;6.094;2022-12-07T04:03:01;5.20;99.90
13848;DHT22;6994;49.752;6.094;2022-12-07T04:05:28;5.20;99.90
13848;DHT22;6994;49.752;6.094;2022-12-07T04:07:55;5.20;99.90
13848;DHT22;6994;49.752;6.094;2022-12-07T04:10:23;5.10;99.90
13848;DHT22;6994;49.752;6.094;2022-12-07T04:12:50;5.10;99.90
13848;DHT22;6994;49.752;6.094;2022-12-07T04:15:17;5.10;99.90
13848;DHT22;6994;49.752;6.094;2022-12-07T04:17:44;5.10;99.90
13848;DHT22;6994;49.752;6.094;2022-12-07T04:20:12;5.10;99.90
13848;DHT22;6994;49.752;6.094;2022-12-07T04:22:39;5.10;99.90
13848;DHT22;6994;49.752;6.094;2022-12-07T04:25:06;5.10;99.90
13848;DHT22;6994;49.752;6.094;2022-12-07T04:27:33;5.30;99.90
13848;DHT22;6994;49.752;6.094;2022-12-07T04:30:01;5.30;99.90
13848;DHT22;6994;49.752;6.094;2022-12-07T04:32:29;5.30;99.90
13848;DHT22;6994;49.752;6.094;2022-12-07T04:34:57;5.20;99.90
13848;DHT22;6994;49.752;6.094;2022-12-07T04:37:25;5.20;99.90
13848;DHT22;6994;49.752;6.094;2022-12-07T04:39:52;5.20;99.90
13848;DHT22;6994;49.752;6.094;2022-12-07T04:42:19;5.20;99.90
13848;DHT22;6994;49.752;6.094;2022-12-07T04:44:47;5.20;99.90
13848;DHT22;6994;49.752;6.094;2022-12-07T04:47:14;5.40;99.90
13848;DHT22;6994;49.752;6.094;2022-12-07T04:49:41;5.40;99.90
13848;DHT22;6994;49.752;6.094;2022-12-07T04:52:08;5.70;99.90
13848;DHT22;6994;49.752;6.094;2022-12-07T04:54:36;5.70;99.90
13848;DHT22;6994;49.752;6.094;2022-12-07T04:57:03;5.60;99.90
13848;DHT22;6994;49.752;6.094;2022-12-07T04:59:30;5.50;99.90
13848;DHT22;6994;49.752;6.094;2022-12-07T05:01:57;5.40;99.90
13848;DHT22;6994;49.752;6.094;2022-12-07T05:04:24;5.30;99.90
13848;DHT22;6994;49.752;6.094;2022-12-07T05:06:52;5.30;99.90
13848;DHT22;6994;49.752;6.094;2022-12-07T05:09:19;5.20;99.90
13848;DHT22;6994;49.752;6.094;2022-12-07T05:11:47;5.40;99.90
13848;DHT22;6994;49.752;6.094;2022-12-07T05:14:16;5.40;99.90
13848;DHT22;6994;49.752;6.094;2022-12-07T05:16:41;5.30;99.90
13848;DHT22;6994;49.752;6.094;2022-12-07T05:19:08;5.30;99.90
13848;DHT22;6994;49.752;6.094;2022-12-07T05:21:36;5.20;99.90
13848;DHT22;6994;49.752;6.094;2022-12-07T05:24:03;5.20;99.90
13848;DHT22;6994;49.752;6.094;2022-12-07T05:26:30;5.30;99.90
13848;DHT22;6994;49.752;6.094;2022-12-07T05:28:57;5.40;99.90
13848;DHT22;6994;49.752;6.094;2022-12-07T05:31:25;5.40;99.90
13848;DHT22;6994;49.752;6.094;2022-12-07T05:33:52;5.50;99.90
13848;DHT22;6994;49.752;6.094;2022-12-07T05:36:19;5.60;99.90
13848;DHT22;6994;49.752;6.094;2022-12-07T05:38:47;5.60;99.90
13848;DHT22;6994;49.752;6.094;2022-12-07T05:41:16;5.60;99.90
13848;DHT22;6994;49.752;6.094;2022-12-07T05:44:01;5.50;99.90
13848;DHT22;6994;49.752;6.094;2022-12-07T05:46:28;5.50;99.90
13848;DHT22;6994;49.752;6.094;2022-12-07T05:48:55;5.40;99.90
13848;DHT22;6994;49.752;6.094;2022-12-07T05:51:23;5.30;99.90
13848;DHT22;6994;49.752;6.094;2022-12-07T05:53:50;5.30;99.90
13848;DHT22;6994;49.752;6.094;2022-12-07T05:56:17;5.20;99.90
13848;DHT22;6994;49.752;6.094;2022-12-07T05:58:44;5.40;99.90
13848;DHT22;6994;49.752;6.094;2022-12-07T06:01:30;5.40;99.90
13848;DHT22;6994;49.752;6.094;2022-12-07T06:03:57;5.40;99.90
13848;DHT22;6994;49.752;6.094;2022-12-07T06:06:24;5.30;99.90
13848;DHT22;6994;49.752;6.094;2022-12-07T06:08:52;5.50;99.90
13848;DHT22;6994;49.752;6.094;2022-12-07T06:11:19;5.50;99.90
13848;DHT22;6994;49.752;6.094;2022-12-07T06:14:04;5.50;99.90
13848;DHT22;6994;49.752;6.094;2022-12-07T06:16:31;5.40;99.90
13848;DHT22;6994;49.752;6.094;2022-12-07T06:18:58;5.60;99.90
13848;DHT22;6994;49.752;6.094;2022-12-07T06:21:25;5.60;99.90
13848;DHT22;6994;49.752;6.094;2022-12-07T06:23:53;5.50;99.90
13848;DHT22;6994;49.752;6.094;2022-12-07T06:26:20;5.50;99.90
13848;DHT22;6994;49.752;6.094;2022-12-07T06:28:47;5.40;99.90
13848;DHT22;6994;49.752;6.094;2022-12-07T06:31:14;5.40;99.90
13848;DHT22;6994;49.752;6.094;2022-12-07T06:33:42;5.30;99.90
13848;DHT22;6994;49.752;6.094;2022-12-07T06:36:09;5.30;99.90
13848;DHT22;6994;49.752;6.094;2022-12-07T06:38:36;5.20;99.90
13848;DHT22;6994;49.752;6.094;2022-12-07T06:41:03;5.20;99.90
13848;DHT22;6994;49.752;6.094;2022-12-07T06:43:30;5.40;99.90
13848;DHT22;6994;49.752;6.094;2022-12-07T06:45:58;5.50;99.90
13848;DHT22;6994;49.752;6.094;2022-12-07T06:48:25;5.40;99.90
13848;DHT22;6994;49.752;6.094;2022-12-07T06:50:53;5.60;99.90
13848;DHT22;6994;49.752;6.094;2022-12-07T06:53:22;5.60;99.90
13848;DHT22;6994;49.752;6.094;2022-12-07T06:55:49;5.60;99.90
13848;DHT22;6994;49.752;6.094;2022-12-07T06:58:17;5.50;99.90
13848;DHT22;6994;49.752;6.094;2022-12-07T07:00:45;5.50;99.90
13848;DHT22;6994;49.752;6.094;2022-12-07T07:03:12;5.50;99.90
13848;DHT22;6994;49.752;6.094;2022-12-07T07:05:39;5.40;99.90
13848;DHT22;6994;49.752;6.094;2022-12-07T07:08:06;5.40;99.90
13848;DHT22;6994;49.752;6.094;2022-12-07T07:10:33;5.30;99.90
13848;DHT22;6994;49.752;6.094;2022-12-07T07:13:01;5.60;99.90
13848;DHT22;6994;49.752;6.094;2022-12-07T07:15:28;5.60;99.90
13848;DHT22;6994;49.752;6.094;2022-12-07T07:17:56;5.40;99.90
13848;DHT22;6994;49.752;6.094;2022-12-07T07:20:24;5.40;99.90
13848;DHT22;6994;49.752;6.094;2022-12-07T07:22:54;5.30;99.90
13848;DHT22;6994;49.752;6.094;2022-12-07T07:25:21;5.30;99.90
13848;DHT22;6994;49.752;6.094;2022-12-07T07:27:49;5.20;99.90
13848;DHT22;6994;49.752;6.094;2022-12-07T07:30:16;5.40;99.90
13848;DHT22;6994;49.752;6.094;2022-12-07T07:32:43;5.50;99.90
13848;DHT22;6994;49.752;6.094;2022-12-07T07:35:11;5.70;99.90
13848;DHT22;6994;49.752;6.094;2022-12-07T07:37:39;5.70;99.90
13848;DHT22;6994;49.752;6.094;2022-12-07T07:40:07;5.60;99.90
13848;DHT22;6994;49.752;6.094;2022-12-07T07:42:34;5.60;99.90
13848;DHT22;6994;49.752;6.094;2022-12-07T07:45:01;5.50;99.90
13848;DHT22;6994;49.752;6.094;2022-12-07T07:47:29;5.50;99.90
13848;DHT22;6994;49.752;6.094;2022-12-07T07:49:56;5.70;99.90
13848;DHT22;6994;49.752;6.094;2022-12-07T07:52:23;5.70;99.90
13848;DHT22;6994;49.752;6.094;2022-12-07T07:54:51;5.60;99.90
13848;DHT22;6994;49.752;6.094;2022-12-07T07:57:19;5.60;99.90
13848;DHT22;6994;49.752;6.094;2022-12-07T07:59:47;5.60;99.90
13848;DHT22;6994;49.752;6.094;2022-12-07T08:02:16;5.50;99.90
13848;DHT22;6994;49.752;6.094;2022-12-07T08:04:42;5.50;99.90
13848;DHT22;6994;49.752;6.094;2022-12-07T08:07:09;5.50;99.90
13848;DHT22;6994;49.752;6.094;2022-12-07T08:09:37;5.50;99.90
13848;DHT22;6994;49.752;6.094;2022-12-07T08:12:04;5.80;99.90
13848;DHT22;6994;49.752;6.094;2022-12-07T08:14:31;5.90;99.90
13848;DHT22;6994;49.752;6.094;2022-12-07T08:16:59;6.20;99.90
13848;DHT22;6994;49.752;6.094;2022-12-07T08:19:26;6.20;99.90
13848;DHT22;6994;49.752;6.094;2022-12-07T08:21:53;6.10;99.90
13848;DHT22;6994;49.752;6.094;2022-12-07T08:24:21;6.10;99.90
13848;DHT22;6994;49.752;6.094;2022-12-07T08:26:48;6.00;99.90
13848;DHT22;6994;49.752;6.094;2022-12-07T08:29:15;6.00;99.90
13848;DHT22;6994;49.752;6.094;2022-12-07T08:31:42;6.30;99.90
13848;DHT22;6994;49.752;6.094;2022-12-07T08:34:12;6.30;99.90
13848;DHT22;6994;49.752;6.094;2022-12-07T08:36:40;6.30;99.90
13848;DHT22;6994;49.752;6.094;2022-12-07T08:39:08;6.20;99.90
13848;DHT22;6994;49.752;6.094;2022-12-07T08:41:35;6.20;99.90
13848;DHT22;6994;49.752;6.094;2022-12-07T08:44:03;6.20;99.90
13848;DHT22;6994;49.752;6.094;2022-12-07T08:46:36;6.20;99.90
13848;DHT22;6994;49.752;6.094;2022-12-07T08:51:32;6.20;99.90
13848;DHT22;6994;49.752;6.094;2022-12-07T08:54:00;6.20;99.90
13848;DHT22;6994;49.752;6.094;2022-12-07T08:56:27;6.40;99.90
13848;DHT22;6994;49.752;6.094;2022-12-07T08:58:54;6.40;99.90
13848;DHT22;6994;49.752;6.094;2022-12-07T09:01:21;6.30;99.90
13848;DHT22;6994;49.752;6.094;2022-12-07T09:03:48;6.20;99.90
13848;DHT22;6994;49.752;6.094;2022-12-07T09:06:16;6.10;99.90
13848;DHT22;6994;49.752;6.094;2022-12-07T09:08:43;6.20;99.90
13848;DHT22;6994;49.752;6.094;2022-12-07T09:11:10;6.10;99.90
13848;DHT22;6994;49.752;6.094;2022-12-07T09:13:37;6.30;99.90
13848;DHT22;6994;49.752;6.094;2022-12-07T09:16:04;6.30;99.90
13848;DHT22;6994;49.752;6.094;2022-12-07T09:18:32;6.40;99.90
13848;DHT22;6994;49.752;6.094;2022-12-07T09:21:00;6.40;99.90
13848;DHT22;6994;49.752;6.094;2022-12-07T09:23:27;6.30;99.90
13848;DHT22;6994;49.752;6.094;2022-12-07T09:25:54;6.20;99.90
13848;DHT22;6994;49.752;6.094;2022-12-07T09:28:21;6.20;99.90
13848;DHT22;6994;49.752;6.094;2022-12-07T09:30:48;6.40;99.90
13848;DHT22;6994;49.752;6.094;2022-12-07T09:33:26;6.60;99.90
13848;DHT22;6994;49.752;6.094;2022-12-07T09:35:49;6.70;99.90
13848;DHT22;6994;49.752;6.094;2022-12-07T09:38:17;6.70;99.90
13848;DHT22;6994;49.752;6.094;2022-12-07T09:40:45;6.70;99.90
13848;DHT22;6994;49.752;6.094;2022-12-07T09:43:18;6.80;99.90
13848;DHT22;6994;49.752;6.094;2022-12-07T09:45:40;6.80;99.90
13848;DHT22;6994;49.752;6.094;2022-12-07T09:48:18;6.90;99.90
13848;DHT22;6994;49.752;6.094;2022-12-07T09:50:45;6.90;99.90
13848;DHT22;6994;49.752;6.094;2022-12-07T09:53:19;7.00;99.90
13848;DHT22;6994;49.752;6.094;2022-12-07T09:55:43;7.00;99.90
13848;DHT22;6994;49.752;6.094;2022-12-07T09:58:24;7.00;99.90
13848;DHT22;6994;49.752;6.094;2022-12-07T10:00:52;7.00;99.90
13848;DHT22;6994;49.752;6.094;2022-12-07T10:03:18;7.00;99.90
13848;DHT22;6994;49.752;6.094;2022-12-07T10:05:46;7.00;99.90
13848;DHT22;6994;49.752;6.094;2022-12-07T10:08:12;7.00;99.90
13848;DHT22;6994;49.752;6.094;2022-12-07T10:10:39;7.00;99.90
13848;DHT22;6994;49.752;6.094;2022-12-07T10:13:07;7.10;99.90
13848;DHT22;6994;49.752;6.094;2022-12-07T10:18:36;7.40;99.90
13848;DHT22;6994;49.752;6.094;2022-12-07T10:21:11;7.40;99.90
13848;DHT22;6994;49.752;6.094;2022-12-07T10:23:42;7.40;99.90
13848;DHT22;6994;49.752;6.094;2022-12-07T10:28:54;7.30;99.90
13848;DHT22;6994;49.752;6.094;2022-12-07T10:31:22;7.20;99.90
13848;DHT22;6994;49.752;6.094;2022-12-07T10:33:55;7.10;99.90
13848;DHT22;6994;49.752;6.094;2022-12-07T10:36:38;7.20;99.90
13848;DHT22;6994;49.752;6.094;2022-12-07T10:39:23;7.10;99.90
13848;DHT22;6994;49.752;6.094;2022-12-07T10:41:57;7.30;99.90
13848;DHT22;6994;49.752;6.094;2022-12-07T10:44:24;7.20;99.90
13848;DHT22;6994;49.752;6.094;2022-12-07T10:55:18;7.60;99.90
13848;DHT22;6994;49.752;6.094;2022-12-07T10:58:05;7.60;99.90
13848;DHT22;6994;49.752;6.094;2022-12-07T11:00:30;7.90;99.90
13848;DHT22;6994;49.752;6.094;2022-12-07T11:04:10;8.20;99.90
13848;DHT22;6994;49.752;6.094;2022-12-07T11:05:58;8.80;99.90
13848;DHT22;6994;49.752;6.094;2022-12-07T11:08:38;9.00;99.90
13848;DHT22;6994;49.752;6.094;2022-12-07T11:11:16;9.10;99.90
13848;DHT22;6994;49.752;6.094;2022-12-07T11:13:47;9.20;99.90
13848;DHT22;6994;49.752;6.094;2022-12-07T11:16:16;9.10;99.90
13848;DHT22;6994;49.752;6.094;2022-12-07T11:21:37;8.90;99.90
13848;DHT22;6994;49.752;6.094;2022-12-07T11:24:39;8.70;99.90
13848;DHT22;6994;49.752;6.094;2022-12-07T11:32:07;8.40;99.90
13848;DHT22;6994;49.752;6.094;2022-12-07T11:37:36;8.50;99.90
13848;DHT22;6994;49.752;6.094;2022-12-07T11:42:50;8.10;99.90
13848;DHT22;6994;49.752;6.094;2022-12-07T11:48:01;7.90;99.90
13848;DHT22;6994;49.752;6.094;2022-12-07T11:50:40;7.80;99.90
13848;DHT22;6994;49.752;6.094;2022-12-07T11:53:30;7.90;99.90
13848;DHT22;6994;49.752;6.094;2022-12-07T11:56:14;7.80;99.90
13848;DHT22;6994;49.752;6.094;2022-12-07T11:58:51;7.80;99.90
13848;DHT22;6994;49.752;6.094;2022-12-07T12:06:42;7.80;99.90
13848;DHT22;6994;49.752;6.094;2022-12-07T12:17:13;7.90;99.90
13848;DHT22;6994;49.752;6.094;2022-12-07T12:19:42;7.80;99.90
13848;DHT22;6994;49.752;6.094;2022-12-07T12:22:17;7.70;99.90
13848;DHT22;6994;49.752;6.094;2022-12-07T12:24:44;7.60;99.90
13848;DHT22;6994;49.752;6.094;2022-12-07T12:29:50;7.60;99.90
13848;DHT22;6994;49.752;6.094;2022-12-07T12:32:21;8.20;99.90
13848;DHT22;6994;49.752;6.094;2022-12-07T12:42:50;9.10;99.90
13848;DHT22;6994;49.752;6.094;2022-12-07T12:45:26;9.20;99.90
13848;DHT22;6994;49.752;6.094;2022-12-07T12:50:26;8.90;99.90
13848;DHT22;6994;49.752;6.094;2022-12-07T12:53:00;8.80;99.90
13848;DHT22;6994;49.752;6.094;2022-12-07T12:56:06;8.70;99.90
13848;DHT22;6994;49.752;6.094;2022-12-07T13:00:39;8.50;99.90
13848;DHT22;6994;49.752;6.094;2022-12-07T13:03:16;8.40;99.90
13848;DHT22;6994;49.752;6.094;2022-12-07T13:05:33;8.30;99.90
13848;DHT22;6994;49.752;6.094;2022-12-07T13:08:25;8.20;99.90
13848;DHT22;6994;49.752;6.094;2022-12-07T13:10:35;8.10;99.90
13848;DHT22;6994;49.752;6.094;2022-12-07T13:15:52;7.90;99.90
13848;DHT22;6994;49.752;6.094;2022-12-07T13:26:21;8.90;99.90
13848;DHT22;6994;49.752;6.094;2022-12-07T13:28:48;9.20;99.90
13848;DHT22;6994;49.752;6.094;2022-12-07T13:31:33;9.20;99.90
13848;DHT22;6994;49.752;6.094;2022-12-07T13:33:50;9.10;99.90
13848;DHT22;6994;49.752;6.094;2022-12-07T13:36:24;8.90;99.90
13848;DHT22;6994;49.752;6.094;2022-12-07T13:38:57;8.70;99.90
13848;DHT22;6994;49.752;6.094;2022-12-07T13:41:24;8.80;99.90
13848;DHT22;6994;49.752;6.094;2022-12-07T13:44:14;8.60;99.90
13848;DHT22;6994;49.752;6.094;2022-12-07T13:46:59;8.60;99.90
13848;DHT22;6994;49.752;6.094;2022-12-07T13:49:23;8.50;99.90
13848;DHT22;6994;49.752;6.094;2022-12-07T13:51:49;8.30;99.90
13848;DHT22;6994;49.752;6.094;2022-12-07T13:54:16;8.30;99.90
13848;DHT22;6994;49.752;6.094;2022-12-07T13:56:43;8.30;99.90
13848;DHT22;6994;49.752;6.094;2022-12-07T13:59:13;8.40;99.90
13848;DHT22;6994;49.752;6.094;2022-12-07T14:01:38;8.70;99.90
13848;DHT22;6994;49.752;6.094;2022-12-07T14:04:34;8.70;99.90
13848;DHT22;6994;49.752;6.094;2022-12-07T14:07:00;8.70;99.90
13848;DHT22;6994;49.752;6.094;2022-12-07T14:09:27;8.60;99.90
13848;DHT22;6994;49.752;6.094;2022-12-07T14:11:55;8.50;99.90
13848;DHT22;6994;49.752;6.094;2022-12-07T14:14:24;8.40;99.90
13848;DHT22;6994;49.752;6.094;2022-12-07T14:17:15;8.30;99.90
13848;DHT22;6994;49.752;6.094;2022-12-07T14:19:41;8.40;99.90
13848;DHT22;6994;49.752;6.094;2022-12-07T14:22:08;8.30;99.90
13848;DHT22;6994;49.752;6.094;2022-12-07T14:24:44;8.50;99.90
13848;DHT22;6994;49.752;6.094;2022-12-07T14:27:20;8.40;99.90
13848;DHT22;6994;49.752;6.094;2022-12-07T14:29:47;8.30;99.90
13848;DHT22;6994;49.752;6.094;2022-12-07T14:32:18;8.20;99.90
13848;DHT22;6994;49.752;6.094;2022-12-07T14:35:07;8.30;99.90
13848;DHT22;6994;49.752;6.094;2022-12-07T14:37:30;8.10;99.90
13848;DHT22;6994;49.752;6.094;2022-12-07T14:39:57;8.10;99.90
13848;DHT22;6994;49.752;6.094;2022-12-07T14:42:26;8.00;99.90
13848;DHT22;6994;49.752;6.094;2022-12-07T14:44:53;7.70;99.90
13848;DHT22;6994;49.752;6.094;2022-12-07T14:47:21;7.70;99.90
13848;DHT22;6994;49.752;6.094;2022-12-07T14:49:49;7.60;99.90
13848;DHT22;6994;49.752;6.094;2022-12-07T14:52:17;7.60;99.90
13848;DHT22;6994;49.752;6.094;2022-12-07T14:54:43;7.50;99.90
13848;DHT22;6994;49.752;6.094;2022-12-07T14:57:11;7.40;99.90
13848;DHT22;6994;49.752;6.094;2022-12-07T14:59:39;7.30;99.90
13848;DHT22;6994;49.752;6.094;2022-12-07T15:02:06;7.30;99.90
13848;DHT22;6994;49.752;6.094;2022-12-07T15:04:33;7.30;99.90
13848;DHT22;6994;49.752;6.094;2022-12-07T15:07:01;7.20;99.90
13848;DHT22;6994;49.752;6.094;2022-12-07T15:09:28;7.10;99.90
13848;DHT22;6994;49.752;6.094;2022-12-07T15:11:55;7.10;99.90
13848;DHT22;6994;49.752;6.094;2022-12-07T15:14:22;7.00;99.90
13848;DHT22;6994;49.752;6.094;2022-12-07T15:16:49;7.00;99.90
13848;DHT22;6994;49.752;6.094;2022-12-07T15:19:23;6.90;99.90
13848;DHT22;6994;49.752;6.094;2022-12-07T15:21:44;6.80;99.90
13848;DHT22;6994;49.752;6.094;2022-12-07T15:24:11;6.80;99.90
13848;DHT22;6994;49.752;6.094;2022-12-07T15:26:38;6.70;99.90
13848;DHT22;6994;49.752;6.094;2022-12-07T15:29:05;6.70;99.90
13848;DHT22;6994;49.752;6.094;2022-12-07T15:31:33;6.60;99.90
13848;DHT22;6994;49.752;6.094;2022-12-07T15:34:00;6.60;99.90
13848;DHT22;6994;49.752;6.094;2022-12-07T15:36:28;6.50;99.90
13848;DHT22;6994;49.752;6.094;2022-12-07T15:38:55;6.50;99.90
13848;DHT22;6994;49.752;6.094;2022-12-07T15:41:22;6.40;99.90
13848;DHT22;6994;49.752;6.094;2022-12-07T15:43:50;6.40;99.90
13848;DHT22;6994;49.752;6.094;2022-12-07T15:46:36;6.40;99.90
13848;DHT22;6994;49.752;6.094;2022-12-07T15:49:03;6.40;99.90
13848;DHT22;6994;49.752;6.094;2022-12-07T15:51:30;6.40;99.90
13848;DHT22;6994;49.752;6.094;2022-12-07T15:53:57;6.40;99.90
13848;DHT22;6994;49.752;6.094;2022-12-07T15:56:24;6.30;99.90
13848;DHT22;6994;49.752;6.094;2022-12-07T15:58:51;6.60;99.90
13848;DHT22;6994;49.752;6.094;2022-12-07T16:01:19;6.70;99.90
13848;DHT22;6994;49.752;6.094;2022-12-07T16:03:46;6.60;99.90
13848;DHT22;6994;49.752;6.094;2022-12-07T16:06:16;6.60;99.90
13848;DHT22;6994;49.752;6.094;2022-12-07T16:08:44;6.80;99.90
13848;DHT22;6994;49.752;6.094;2022-12-07T16:11:10;6.80;99.90
13848;DHT22;6994;49.752;6.094;2022-12-07T16:13:38;6.70;99.90
13848;DHT22;6994;49.752;6.094;2022-12-07T16:16:09;6.70;99.90
13848;DHT22;6994;49.752;6.094;2022-12-07T16:18:32;6.60;99.90
13848;DHT22;6994;49.752;6.094;2022-12-07T16:20:59;6.50;99.90
13848;DHT22;6994;49.752;6.094;2022-12-07T16:23:27;6.50;99.90
13848;DHT22;6994;49.752;6.094;2022-12-07T16:25:54;6.40;99.90
13848;DHT22;6994;49.752;6.094;2022-12-07T16:28:21;6.30;99.90
13848;DHT22;6994;49.752;6.094;2022-12-07T16:30:48;6.30;99.90
13848;DHT22;6994;49.752;6.094;2022-12-07T16:33:15;6.20;99.90
13848;DHT22;6994;49.752;6.094;2022-12-07T16:35:42;6.20;99.90
13848;DHT22;6994;49.752;6.094;2022-12-07T16:38:10;6.10;99.90
13848;DHT22;6994;49.752;6.094;2022-12-07T16:40:37;6.10;99.90
13848;DHT22;6994;49.752;6.094;2022-12-07T16:43:04;6.00;99.90
13848;DHT22;6994;49.752;6.094;2022-12-07T16:45:31;6.00;99.90
13848;DHT22;6994;49.752;6.094;2022-12-07T16:47:58;5.90;99.90
13848;DHT22;6994;49.752;6.094;2022-12-07T16:50:26;5.90;99.90
13848;DHT22;6994;49.752;6.094;2022-12-07T16:52:53;5.80;99.90
13848;DHT22;6994;49.752;6.094;2022-12-07T16:55:20;5.70;99.90
13848;DHT22;6994;49.752;6.094;2022-12-07T16:57:47;5.60;99.90
13848;DHT22;6994;49.752;6.094;2022-12-07T17:00:14;5.50;99.90
13848;DHT22;6994;49.752;6.094;2022-12-07T17:02:42;5.40;99.90
13848;DHT22;6994;49.752;6.094;2022-12-07T17:05:09;5.60;99.90
13848;DHT22;6994;49.752;6.094;2022-12-07T17:07:36;5.60;99.90
13848;DHT22;6994;49.752;6.094;2022-12-07T17:10:03;5.50;99.90
13848;DHT22;6994;49.752;6.094;2022-12-07T17:12:30;5.40;99.90
13848;DHT22;6994;49.752;6.094;2022-12-07T17:14:58;5.40;99.90
13848;DHT22;6994;49.752;6.094;2022-12-07T17:17:52;5.20;99.90
13848;DHT22;6994;49.752;6.094;2022-12-07T17:20:15;5.20;99.90
13848;DHT22;6994;49.752;6.094;2022-12-07T17:22:43;5.20;99.90
13848;DHT22;6994;49.752;6.094;2022-12-07T17:25:10;5.20;99.90
13848;DHT22;6994;49.752;6.094;2022-12-07T17:27:37;5.20;99.90
13848;DHT22;6994;49.752;6.094;2022-12-07T17:30:05;5.10;99.90
13848;DHT22;6994;49.752;6.094;2022-12-07T17:32:32;5.10;99.90
13848;DHT22;6994;49.752;6.094;2022-12-07T17:35:00;5.10;99.90
13848;DHT22;6994;49.752;6.094;2022-12-07T17:37:27;5.10;99.90
13848;DHT22;6994;49.752;6.094;2022-12-07T17:39:54;5.40;99.90
13848;DHT22;6994;49.752;6.094;2022-12-07T17:42:21;5.50;99.90
13848;DHT22;6994;49.752;6.094;2022-12-07T17:45:04;5.70;99.90
13848;DHT22;6994;49.752;6.094;2022-12-07T17:47:31;5.80;99.90